Time;durP1;ratioP1;P1;durP2;ratioP2;P2;SDS_P1;SDS_P2;PMS_P1;PMS_P2;Temp;Humidity;BMP_temperature;BMP_pressure;BME280_temperature;BME280_humidity;BME280_pressure;Samples;Min_cycle;Max_cycle;Signal;HPM_P1;HPM_P2
2022/10/24 00:00:41;;;;;;;17.42;5.70;;;;;;;14.10;100.00;100022.19;4979682;28;20074;-75
2022/10/24 00:03:07;;;;;;;13.82;5.63;;;;;;;14.09;100.00;100036.34;4976984;28;20061;-77
2022/10/24 00:05:34;;;;;;;11.02;5.60;;;;;;;14.08;100.00;100029.44;4975521;28;20054;-77
2022/10/24 00:08:01;;;;;;;15.43;5.60;;;;;;;14.05;100.00;100039.53;4975792;28;20053;-76
2022/10/24 00:10:28;;;;;;;12.77;5.60;;;;;;;14.01;100.00;100033.03;4975514;28;20520;-77
2022/10/24 00:12:55;;;;;;;11.68;5.22;;;;;;;14.00;100.00;100041.94;4979486;28;20082;-76
2022/10/24 00:15:23;;;;;;;18.05;5.95;;;;;;;13.99;100.00;100045.56;4982852;28;20055;-77
2022/10/24 00:17:50;;;;;;;14.70;6.00;;;;;;;13.95;100.00;100037.25;5000701;28;20133;-76
2022/10/24 00:20:16;;;;;;;11.98;5.32;;;;;;;13.94;100.00;100033.81;4998805;28;20062;-77
2022/10/24 00:22:43;;;;;;;15.48;6.05;;;;;;;14.03;100.00;100026.59;4994908;28;20223;-77
2022/10/24 00:25:09;;;;;;;12.65;6.47;;;;;;;14.08;100.00;100033.91;4994256;28;20182;-76
2022/10/24 00:27:36;;;;;;;15.32;6.60;;;;;;;14.28;100.00;100019.81;4994015;28;20058;-76
2022/10/24 00:30:04;;;;;;;12.75;5.50;;;;;;;14.27;100.00;100020.03;4981396;28;20545;-77
2022/10/24 00:32:32;;;;;;;16.35;6.97;;;;;;;14.26;100.00;100024.47;4977471;28;20078;-77
2022/10/24 00:34:58;;;;;;;14.43;5.40;;;;;;;14.20;100.00;100027.88;4976040;28;20050;-77
2022/10/24 00:37:25;;;;;;;11.65;5.60;;;;;;;14.30;100.00;100022.25;4975410;28;20051;-77
2022/10/24 00:39:52;;;;;;;15.50;5.85;;;;;;;14.18;100.00;100013.28;4988132;28;20051;-77
2022/10/24 00:42:18;;;;;;;15.55;5.53;;;;;;;14.17;100.00;100023.03;4983585;28;20657;-76
2022/10/24 00:44:47;;;;;;;16.48;7.03;;;;;;;14.17;100.00;100014.31;4955251;28;20466;-76
2022/10/24 00:47:16;;;;;;;10.63;6.72;;;;;;;14.28;100.00;100035.63;4975892;28;20160;-77
2022/10/24 00:49:48;;;;;;;14.45;5.90;;;;;;;14.24;100.00;100029.13;4994132;28;20129;-76
2022/10/24 00:52:20;;;;;;;12.40;5.95;;;;;;;14.21;100.00;100032.13;4996426;28;20077;-76
2022/10/24 00:54:47;;;;;;;16.58;7.35;;;;;;;14.14;100.00;100025.25;5001444;28;20046;-76
2022/10/24 00:57:20;;;;;;;12.77;5.88;;;;;;;14.18;100.00;100029.88;5003095;28;20137;-77
2022/10/24 00:59:51;;;;;;;15.45;5.75;;;;;;;14.26;100.00;100011.31;5000201;28;20146;-77
2022/10/24 01:02:18;;;;;;;21.15;6.80;;;;;;;14.24;100.00;100013.31;4990561;28;20082;-77
2022/10/24 01:04:47;;;;;;;16.60;6.28;;;;;;;14.17;100.00;100017.78;4983859;28;20055;-77
2022/10/24 01:07:31;;;;;;;18.67;5.97;;;;;;;14.12;100.00;100007.00;4983827;28;20054;-77
2022/10/24 01:10:08;;;;;;;14.43;6.32;;;;;;;14.08;100.00;99997.88;4991920;28;20142;-77
2022/10/24 01:12:46;;;;;;;15.40;6.47;;;;;;;14.07;100.00;100000.69;4985457;28;20054;-77
2022/10/24 01:15:19;;;;;;;16.95;6.50;;;;;;;14.05;100.00;100002.72;4985976;28;20086;-77
2022/10/24 01:17:55;;;;;;;16.40;6.60;;;;;;;14.12;100.00;99999.13;4967189;29;20055;-77
2022/10/24 01:20:39;;;;;;;16.05;6.78;;;;;;;13.98;100.00;100015.00;4976577;28;20106;-77
2022/10/24 01:23:28;;;;;;;16.08;6.53;;;;;;;13.94;100.00;99996.16;4961051;28;20051;-77
2022/10/24 01:26:12;;;;;;;14.18;6.45;;;;;;;13.96;100.00;99999.41;4995340;28;20046;-76
2022/10/24 01:28:47;;;;;;;21.75;6.88;;;;;;;13.95;100.00;99995.97;4996312;28;20133;-76
2022/10/24 01:31:21;;;;;;;21.27;7.28;;;;;;;13.87;100.00;99988.22;4988929;28;20115;-78
2022/10/24 01:33:54;;;;;;;18.17;7.78;;;;;;;14.04;100.00;99987.94;4980851;28;20129;-79
2022/10/24 01:36:32;;;;;;;15.40;6.47;;;;;;;14.04;100.00;99988.75;4994351;28;20137;-78
2022/10/24 01:39:04;;;;;;;15.57;6.75;;;;;;;13.96;100.00;99978.38;4995293;28;20050;-78
2022/10/24 01:41:33;;;;;;;22.70;6.75;;;;;;;13.92;100.00;99975.31;4976483;28;20053;-77
2022/10/24 01:44:04;;;;;;;17.90;7.45;;;;;;;13.95;100.00;99974.13;4976296;28;20061;-78
2022/10/24 01:46:37;;;;;;;14.65;6.35;;;;;;;13.93;100.00;99968.25;4985712;28;20133;-78
2022/10/24 01:49:12;;;;;;;19.73;7.07;;;;;;;14.06;100.00;99967.50;4994889;28;20061;-78
2022/10/24 01:51:41;;;;;;;14.23;6.55;;;;;;;14.09;100.00;99954.78;4996891;28;20496;-77
2022/10/24 01:54:09;;;;;;;11.77;6.20;;;;;;;13.92;100.00;99954.28;4994236;28;20475;-77
2022/10/24 01:56:36;;;;;;;16.52;6.57;;;;;;;13.89;100.00;99962.56;4995337;28;20054;-77
2022/10/24 01:59:07;;;;;;;12.30;6.05;;;;;;;13.88;100.00;99952.22;4995328;28;20085;-77
2022/10/24 02:01:37;;;;;;;17.75;7.03;;;;;;;13.86;100.00;99948.97;4994216;28;20046;-77
2022/10/24 02:04:09;;;;;;;14.02;5.50;;;;;;;13.84;100.00;99943.09;4997583;28;20146;-77
2022/10/24 02:06:40;;;;;;;15.75;6.00;;;;;;;13.88;100.00;99952.22;4996998;28;20092;-76
2022/10/24 02:09:11;;;;;;;14.05;6.00;;;;;;;13.80;100.00;99950.56;4987946;28;20136;-76
2022/10/24 02:11:38;;;;;;;12.35;6.22;;;;;;;13.81;100.00;99944.28;4977414;28;20068;-76
2022/10/24 02:14:10;;;;;;;11.80;5.80;;;;;;;13.87;100.00;99947.97;4977392;28;20051;-76
2022/10/24 02:16:38;;;;;;;14.10;6.50;;;;;;;13.89;100.00;99948.59;4979019;28;20058;-77
2022/10/24 02:19:05;;;;;;;18.30;6.38;;;;;;;13.90;100.00;99943.13;4977066;28;20137;-77
2022/10/24 02:21:37;;;;;;;17.50;6.68;;;;;;;13.92;100.00;99949.03;4977248;28;20089;-77
2022/10/24 02:24:13;;;;;;;10.93;5.82;;;;;;;13.89;100.00;99946.78;4978298;28;20130;-77
2022/10/24 02:26:47;;;;;;;18.23;5.50;;;;;;;13.90;100.00;99945.78;4976682;28;20046;-76
2022/10/24 02:29:18;;;;;;;14.13;5.88;;;;;;;13.91;100.00;99944.75;4977380;28;20561;-76
2022/10/24 02:31:50;;;;;;;12.32;5.72;;;;;;;13.93;100.00;99934.06;4985055;28;20534;-76
2022/10/24 02:34:19;;;;;;;15.52;5.78;;;;;;;13.87;100.00;99940.91;4995291;28;20055;-77
2022/10/24 02:36:48;;;;;;;13.73;6.18;;;;;;;13.82;100.00;99945.09;4995293;28;20133;-77
2022/10/24 02:39:17;;;;;;;14.50;6.25;;;;;;;13.87;100.00;99933.00;4980125;28;20697;-76
2022/10/24 02:41:46;;;;;;;17.10;5.55;;;;;;;13.92;100.00;99927.16;4975952;28;20051;-77
2022/10/24 03:05:57;;;;;;;18.95;5.93;;;;;;;13.68;100.00;99901.38;5050696;23;20054;-79
2022/10/24 03:09:08;;;;;;;13.93;5.68;;;;;;;13.88;100.00;99918.03;4998422;28;20066;-80
2022/10/24 03:42:14;;;;;;;13.30;5.43;;;;;;;13.88;100.00;99923.31;5000121;28;20061;-80
2022/10/24 03:48:21;;;;;;;13.73;6.28;;;;;;;13.67;100.00;99911.06;5059219;23;20050;-80
2022/10/24 03:58:42;;;;;;;11.38;5.97;;;;;;;13.79;100.00;99911.31;4945347;29;20438;-81
2022/10/24 04:01:53;;;;;;;13.73;5.40;;;;;;;13.81;100.00;99933.78;4945901;29;20079;-80
2022/10/24 05:32:09;;;;;;;10.20;4.22;;;;;;;13.50;99.73;99947.34;4930833;28;20127;-80
2022/10/24 05:34:49;;;;;;;8.82;4.43;;;;;;;13.57;99.10;99947.41;4940576;29;20068;-80
2022/10/24 05:37:20;;;;;;;7.63;3.45;;;;;;;13.68;97.94;99954.75;4992060;28;20113;-80
2022/10/24 05:39:59;;;;;;;6.13;3.33;;;;;;;13.72;97.68;99960.41;5000034;28;20047;-79
2022/10/24 05:42:44;;;;;;;7.80;3.58;;;;;;;13.77;96.92;99958.84;5001567;28;20066;-80
2022/10/24 05:45:11;;;;;;;9.30;3.70;;;;;;;13.68;96.50;99948.69;5001207;28;20046;-80
2022/10/24 05:48:43;;;;;;;6.68;3.20;;;;;;;13.89;95.42;99965.19;5000702;28;20050;-80
2022/10/24 05:51:41;;;;;;;6.95;3.67;;;;;;;13.77;95.41;99940.44;4960412;29;20051;-79
2022/10/24 05:57:49;;;;;;;;;;;;;;;;;;;;;
2022/10/24 06:00:21;;;;;;;10.15;3.65;;;;;;;13.73;95.13;99946.25;4922841;29;20075;-82
2022/10/24 06:08:07;;;;;;;8.13;3.47;;;;;;;13.65;96.09;99965.66;4952936;28;20146;-79
2022/10/24 06:10:33;;;;;;;8.95;3.28;;;;;;;13.65;96.03;99967.47;4960523;28;20071;-81
2022/10/24 06:26:25;;;;;;;12.18;3.40;;;;;;;13.61;96.95;99986.25;4969741;28;20061;-80
2022/10/24 06:28:53;;;;;;;6.25;3.33;;;;;;;13.70;96.63;99994.81;4979058;28;20066;-80
2022/10/24 06:31:20;;;;;;;5.95;3.47;;;;;;;13.50;97.03;99962.31;4981231;28;20062;-80
2022/10/24 06:33:47;;;;;;;14.13;3.45;;;;;;;13.65;97.39;99993.75;4981434;28;20055;-79
2022/10/24 06:36:15;;;;;;;9.73;3.55;;;;;;;13.62;97.07;99981.81;4980578;28;20122;-80
2022/10/24 06:38:42;;;;;;;8.80;3.17;;;;;;;13.70;96.97;100000.06;4979056;28;20107;-81
2022/10/24 06:41:10;;;;;;;7.95;3.53;;;;;;;13.81;96.57;99990.81;4979069;28;20398;-80
2022/10/24 06:43:38;;;;;;;10.70;3.45;;;;;;;13.89;96.25;99998.56;4978438;28;20089;-80
2022/10/24 06:46:07;;;;;;;10.32;3.60;;;;;;;13.97;95.44;100000.22;4977931;28;20588;-80
2022/10/24 06:48:33;;;;;;;10.30;3.88;;;;;;;13.99;95.56;99991.16;4978438;28;20062;-81
2022/10/24 06:51:01;;;;;;;11.35;3.78;;;;;;;14.06;95.41;99999.88;4980399;28;20137;-80
2022/10/24 06:53:29;;;;;;;4.63;2.83;;;;;;;14.10;94.98;99993.25;4980296;28;20142;-80
2022/10/24 06:55:59;;;;;;;5.07;2.80;;;;;;;14.21;94.35;99997.13;4979593;28;20130;-80
2022/10/24 06:58:26;;;;;;;7.45;3.35;;;;;;;14.24;94.30;99994.91;4980109;28;20108;-81
2022/10/24 07:00:53;;;;;;;8.75;3.40;;;;;;;14.29;94.08;100000.41;4980698;28;20603;-80
2022/10/24 07:03:19;;;;;;;10.13;3.20;;;;;;;14.29;94.11;100013.56;4980913;28;20053;-80
2022/10/24 07:05:46;;;;;;;7.95;3.28;;;;;;;14.36;93.98;100018.03;4984488;28;20055;-80
2022/10/24 07:08:12;;;;;;;7.80;3.08;;;;;;;14.39;93.36;100025.56;4987526;28;20107;-80
2022/10/24 07:10:40;;;;;;;5.88;2.88;;;;;;;14.42;93.48;100015.47;4981038;28;20069;-80
2022/10/24 07:13:07;;;;;;;8.18;3.28;;;;;;;14.53;93.11;100027.28;4980685;28;20105;-81
2022/10/24 07:15:33;;;;;;;4.15;2.55;;;;;;;14.58;92.82;100022.25;4979837;28;20055;-80
2022/10/24 07:18:03;;;;;;;7.57;2.75;;;;;;;14.70;92.12;100015.38;4979356;28;20122;-80
2022/10/24 07:20:30;;;;;;;6.72;2.58;;;;;;;14.83;91.66;100023.31;4981141;28;20047;-80
2022/10/24 07:22:57;;;;;;;11.05;3.25;;;;;;;14.87;91.23;100029.81;4980094;28;20060;-80
2022/10/24 07:25:23;;;;;;;9.30;3.00;;;;;;;15.02;91.01;100031.47;4980712;28;20082;-80
2022/10/24 07:27:53;;;;;;;6.88;3.00;;;;;;;15.08;90.32;100034.13;4980768;28;20053;-79
2022/10/24 07:30:20;;;;;;;8.07;3.20;;;;;;;15.14;89.94;100041.22;4980154;28;20058;-81
2022/10/24 07:32:47;;;;;;;7.70;2.90;;;;;;;15.23;89.69;100044.47;4981155;28;20115;-81
2022/10/24 07:35:14;;;;;;;6.43;2.83;;;;;;;15.20;89.62;100050.16;4980191;28;20050;-81
2022/10/24 07:37:40;;;;;;;7.25;3.47;;;;;;;15.46;88.84;100059.94;4979566;28;20127;-80
2022/10/24 07:40:08;;;;;;;7.85;3.30;;;;;;;15.59;88.25;100052.88;4979015;28;20134;-81
2022/10/24 07:42:35;;;;;;;9.55;3.10;;;;;;;15.75;87.58;100062.19;4980181;28;20085;-81
2022/10/24 07:45:04;;;;;;;8.45;3.50;;;;;;;15.89;87.02;100065.66;4980913;28;20122;-80
2022/10/24 07:47:31;;;;;;;6.38;3.13;;;;;;;16.01;86.52;100076.41;4980448;28;20449;-81
2022/10/24 07:49:57;;;;;;;8.82;3.10;;;;;;;15.89;86.75;100065.66;4980342;28;20138;-81
2022/10/24 07:52:24;;;;;;;9.95;2.90;;;;;;;15.81;86.95;100057.94;4979309;28;20071;-79
2022/10/24 07:54:53;;;;;;;5.82;2.97;;;;;;;15.74;87.31;100051.84;4979619;28;20497;-79
2022/10/24 07:57:19;;;;;;;10.85;3.17;;;;;;;15.66;87.55;100054.69;4981044;28;20485;-80
2022/10/24 07:59:46;;;;;;;9.90;3.40;;;;;;;15.70;87.64;100067.28;4978448;28;20126;-80
2022/10/24 08:02:16;;;;;;;5.88;2.67;;;;;;;15.77;87.44;100062.00;4978579;28;20782;-80
2022/10/24 08:04:43;;;;;;;8.20;3.05;;;;;;;15.80;87.05;100057.13;4980871;28;20074;-80
2022/10/24 08:07:12;;;;;;;11.73;3.47;;;;;;;15.84;86.82;100053.06;4981887;28;20158;-80
2022/10/24 08:09:39;;;;;;;6.38;2.30;;;;;;;15.90;86.46;100065.44;4981606;28;20043;-81
2022/10/24 08:12:06;;;;;;;8.48;2.65;;;;;;;16.40;85.75;100062.31;4981903;28;20129;-80
2022/10/24 08:14:33;;;;;;;7.72;3.00;;;;;;;16.79;83.39;100066.66;4982176;28;20130;-80
2022/10/24 08:16:59;;;;;;;13.93;2.97;;;;;;;17.15;82.34;100069.53;4978629;28;20089;-80
2022/10/24 08:19:27;;;;;;;8.75;2.95;;;;;;;17.56;80.97;100069.03;4981258;28;20049;-80
2022/10/24 08:21:54;;;;;;;6.82;2.67;;;;;;;17.92;79.42;100064.91;4982024;28;20082;-80
2022/10/24 08:24:21;;;;;;;5.43;2.42;;;;;;;18.36;77.62;100073.66;4981944;28;20135;-80
2022/10/24 08:26:47;;;;;;;6.47;2.58;;;;;;;18.71;76.91;100065.94;4983432;28;20089;-79
2022/10/24 08:29:20;;;;;;;7.18;2.63;;;;;;;18.56;76.04;100060.97;4979048;28;20046;-78
2022/10/24 08:31:49;;;;;;;6.45;2.60;;;;;;;18.40;77.13;100058.94;4976625;28;20050;-78
2022/10/24 08:34:16;;;;;;;8.05;2.22;;;;;;;18.07;77.62;100064.56;4984777;28;20141;-78
2022/10/24 08:36:44;;;;;;;8.25;2.80;;;;;;;17.81;78.50;100065.63;4986272;28;20062;-79
2022/10/24 08:39:11;;;;;;;7.32;2.65;;;;;;;17.74;78.77;100063.03;4979829;28;20076;-78
2022/10/24 08:41:42;;;;;;;8.98;3.33;;;;;;;17.58;79.03;100060.88;4981059;28;20043;-78
2022/10/24 08:44:19;;;;;;;7.47;2.60;;;;;;;17.63;78.96;100052.31;4980733;28;20122;-77
2022/10/24 08:46:50;;;;;;;8.30;3.03;;;;;;;17.55;78.59;100062.13;4979811;28;20128;-78
2022/10/24 08:49:26;;;;;;;6.97;3.10;;;;;;;17.71;78.28;100071.41;4981355;28;20078;-79
2022/10/24 08:51:58;;;;;;;12.38;3.92;;;;;;;17.58;77.99;100061.69;4971298;28;20302;-78
2022/10/24 08:54:28;;;;;;;10.32;2.78;;;;;;;17.86;77.65;100061.31;4974386;28;20049;-78
2022/10/24 08:56:58;;;;;;;8.88;3.13;;;;;;;18.09;77.48;100073.91;4979732;28;20142;-78
2022/10/24 08:59:28;;;;;;;7.43;2.45;;;;;;;18.32;76.69;100083.06;4978115;28;20073;-78
2022/10/24 09:01:59;;;;;;;12.93;3.47;;;;;;;18.29;75.20;100068.41;4971053;28;20141;-79
2022/10/24 09:04:36;;;;;;;8.75;2.90;;;;;;;18.23;75.54;100064.00;5085169;23;20082;-79
2022/10/24 09:07:23;;;;;;;5.60;2.40;;;;;;;18.12;74.07;100044.34;4994819;28;20110;-79
2022/10/24 09:09:56;;;;;;;10.13;3.40;;;;;;;18.18;74.32;100055.91;4989285;28;20501;-80
2022/10/24 09:12:27;;;;;;;7.47;3.03;;;;;;;18.42;74.25;100078.88;4984491;28;20109;-79
2022/10/24 09:14:59;;;;;;;8.30;2.63;;;;;;;18.62;74.47;100086.63;4967903;28;20126;-79
2022/10/24 09:17:30;;;;;;;6.40;2.13;;;;;;;18.40;73.82;100069.53;4965552;28;20134;-79
2022/10/24 09:20:00;;;;;;;9.07;3.00;;;;;;;18.63;73.74;100080.28;4967344;28;20066;-78
2022/10/24 09:22:32;;;;;;;9.30;3.25;;;;;;;18.45;73.91;100083.72;4965767;28;20051;-79
2022/10/24 09:25:04;;;;;;;8.70;2.67;;;;;;;18.51;73.42;100082.03;4958976;28;20141;-79
2022/10/24 09:27:33;;;;;;;;;;;;;;;18.54;73.17;100085.03;4962235;28;20065;-77
2022/10/24 09:30:00;;;;;;;10.05;3.00;;;;;;;18.67;73.83;100097.38;4965072;28;19972;-80
2022/10/24 09:32:31;;;;;;;7.03;2.70;;;;;;;18.62;71.09;100083.97;4967792;28;20082;-79
2022/10/24 09:35:00;;;;;;;8.05;2.80;;;;;;;18.78;72.13;100072.78;4978278;28;20578;-79
2022/10/24 09:37:38;;;;;;;9.70;2.47;;;;;;;18.78;71.68;100079.91;4970241;28;20043;-78
2022/10/24 09:40:09;;;;;;;7.32;2.75;;;;;;;18.74;71.43;100076.91;4960790;28;20161;-78
2022/10/24 09:42:37;;;;;;;8.80;3.00;;;;;;;18.72;71.02;100083.47;4975623;28;20061;-79
2022/10/24 09:45:18;;;;;;;8.15;2.55;;;;;;;18.52;71.20;100094.25;4964159;28;20046;-79
2022/10/24 09:47:45;;;;;;;11.77;3.45;;;;;;;18.37;71.74;100107.06;4977924;28;20053;-78
2022/10/24 09:50:20;;;;;;;8.60;2.72;;;;;;;18.16;73.29;100109.09;4975503;28;20130;-77
2022/10/24 09:52:51;;;;;;;13.20;3.60;;;;;;;18.06;73.38;100124.66;4976254;28;20406;-79
2022/10/24 09:55:20;;;;;;;7.70;2.60;;;;;;;18.05;73.67;100111.63;4977381;28;20089;-79
2022/10/24 09:57:47;;;;;;;9.05;3.10;;;;;;;17.94;72.79;100105.22;4976501;28;20055;-78
2022/10/24 10:00:23;;;;;;;9.38;2.92;;;;;;;17.80;72.90;100112.44;4969868;28;20469;-78
2022/10/24 10:02:58;;;;;;;8.30;2.90;;;;;;;17.82;72.93;100122.81;4977719;28;20519;-79
2022/10/24 10:05:25;;;;;;;5.82;2.40;;;;;;;17.89;72.81;100134.16;4971502;28;20084;-80
2022/10/24 10:07:53;;;;;;;11.00;3.58;;;;;;;17.98;72.95;100119.63;4973729;28;20062;-79
2022/10/24 10:10:32;;;;;;;8.27;3.03;;;;;;;18.05;73.01;100120.38;4970989;28;20105;-79
2022/10/24 10:13:05;;;;;;;8.30;2.85;;;;;;;18.18;73.23;100117.63;4968724;28;20054;-79
2022/10/24 10:15:36;;;;;;;9.65;3.20;;;;;;;18.19;73.81;100119.25;4970458;28;20042;-78
2022/10/24 10:18:21;;;;;;;15.48;3.30;;;;;;;18.20;73.72;100134.09;4969988;28;20122;-79
2022/10/24 10:21:13;;;;;;;10.38;3.40;;;;;;;18.22;72.32;100131.22;4970159;28;20062;-79
2022/10/24 10:23:48;;;;;;;10.02;2.30;;;;;;;18.28;72.38;100118.97;4971429;28;20492;-79
2022/10/24 10:26:26;;;;;;;12.50;2.88;;;;;;;18.38;72.73;100141.28;4977334;28;20051;-78
2022/10/24 10:28:59;;;;;;;9.70;3.30;;;;;;;18.26;73.04;100135.06;4980373;28;20093;-79
2022/10/24 10:31:33;;;;;;;10.70;2.85;;;;;;;18.30;72.35;100148.69;4980931;28;20120;-78
2022/10/24 10:34:10;;;;;;;8.60;2.42;;;;;;;18.37;72.11;100146.78;4978955;28;20122;-79
2022/10/24 10:36:48;;;;;;;8.65;2.78;;;;;;;18.30;72.18;100143.38;4978616;28;20154;-79
2022/10/24 10:39:30;;;;;;;9.20;3.55;;;;;;;18.31;72.40;100147.66;4977121;28;20490;-79
2022/10/24 10:42:02;;;;;;;8.93;2.67;;;;;;;18.35;72.25;100143.56;4979024;28;20065;-79
2022/10/24 10:44:45;;;;;;;9.60;2.88;;;;;;;18.41;71.80;100156.72;4974252;28;20139;-79
2022/10/24 10:47:17;;;;;;;8.32;2.60;;;;;;;18.50;72.03;100150.09;4971190;28;20189;-79
2022/10/24 10:49:47;;;;;;;8.68;2.83;;;;;;;18.49;71.17;100159.06;4970316;28;20097;-79
2022/10/24 10:52:22;;;;;;;12.77;3.15;;;;;;;18.51;71.28;100162.31;4970517;28;20078;-79
2022/10/24 10:55:15;;;;;;;9.25;3.00;;;;;;;18.67;71.38;100158.31;4980154;28;20043;-79
2022/10/24 10:57:50;;;;;;;8.43;2.75;;;;;;;18.72;71.43;100161.13;4981300;28;20113;-79
2022/10/24 11:00:21;;;;;;;9.48;3.08;;;;;;;18.64;71.02;100165.91;4980556;28;20035;-78
2022/10/24 11:03:02;;;;;;;10.77;3.10;;;;;;;18.68;71.21;100167.09;4973428;28;20062;-79
2022/10/24 11:05:43;;;;;;;11.10;3.10;;;;;;;18.67;71.49;100160.97;4975238;28;20135;-78
2022/10/24 11:08:24;;;;;;;5.70;2.95;;;;;;;18.82;71.41;100177.34;4975121;28;20500;-79
2022/10/24 11:10:54;;;;;;;10.43;3.55;;;;;;;18.83;71.39;100181.59;4978598;28;20086;-78
2022/10/24 11:13:27;;;;;;;9.55;3.53;;;;;;;18.84;71.34;100175.28;4970486;28;20134;-78
2022/10/24 11:15:58;;;;;;;9.50;2.95;;;;;;;18.77;70.69;100171.88;4967125;28;20075;-77
2022/10/24 11:18:32;;;;;;;8.15;3.03;;;;;;;18.71;71.73;100180.72;4970571;28;20050;-79
2022/10/24 11:21:03;;;;;;;12.63;2.90;;;;;;;18.87;71.03;100180.13;4969233;28;20043;-79
2022/10/24 11:23:33;;;;;;;10.80;2.83;;;;;;;18.82;72.28;100174.69;4969492;28;20130;-82
2022/10/24 11:26:06;;;;;;;8.73;3.00;;;;;;;18.79;71.87;100175.13;4970430;28;20082;-79
2022/10/24 11:28:39;;;;;;;17.92;3.78;;;;;;;18.56;72.09;100164.31;4969427;28;20082;-79
2022/10/24 11:31:11;;;;;;;8.20;2.97;;;;;;;18.75;71.93;100184.53;4969759;28;20118;-79
2022/10/24 11:33:44;;;;;;;13.82;3.63;;;;;;;18.67;71.75;100181.38;4973654;28;20051;-79
2022/10/24 11:36:18;;;;;;;16.35;3.05;;;;;;;18.63;71.80;100194.25;4979722;28;20115;-78
2022/10/24 11:38:51;;;;;;;9.15;2.78;;;;;;;18.63;71.44;100194.25;4968375;28;20125;-78
2022/10/24 11:41:28;;;;;;;;;;;;;;;18.51;71.68;100185.34;4976524;28;20445;-78
2022/10/24 11:43:59;;;;;;;11.20;2.88;;;;;;;18.40;71.79;100180.78;4974489;28;20013;-78
2022/10/24 11:46:32;;;;;;;36.80;4.85;;;;;;;18.44;72.02;100181.94;4977673;28;20061;-79
2022/10/24 11:49:09;;;;;;;47.92;5.22;;;;;;;18.46;72.53;100180.72;4977611;28;20479;-79
2022/10/24 11:51:40;;;;;;;8.85;2.55;;;;;;;18.35;73.05;100181.44;4978763;28;20086;-80
2022/10/24 11:54:14;;;;;;;9.10;2.67;;;;;;;18.39;73.11;100185.28;4979284;28;20133;-78
2022/10/24 11:56:46;;;;;;;9.13;2.67;;;;;;;18.41;73.44;100190.34;4969959;28;20114;-79
2022/10/24 11:59:17;;;;;;;10.80;3.17;;;;;;;18.36;73.54;100184.91;4967431;28;20043;-79
2022/10/24 12:02:29;;;;;;;10.00;3.55;;;;;;;18.49;73.45;100187.41;4970882;28;20055;-78
2022/10/24 12:05:22;;;;;;;9.13;2.90;;;;;;;18.66;73.02;100188.50;4971872;28;20146;-80
2022/10/24 12:08:12;;;;;;;12.77;2.97;;;;;;;18.62;72.66;100191.81;4973040;28;20114;-78
2022/10/24 12:11:07;;;;;;;15.60;2.80;;;;;;;18.61;72.73;100191.00;4976433;28;20489;-79
2022/10/24 12:14:12;;;;;;;8.20;2.60;;;;;;;18.75;72.39;100189.03;4971176;28;20106;-79
2022/10/24 12:16:51;;;;;;;11.38;2.92;;;;;;;18.62;72.75;100189.97;4966748;28;20089;-79
2022/10/24 12:19:21;;;;;;;10.90;2.85;;;;;;;18.61;71.97;100182.25;4974974;28;20560;-79
2022/10/24 12:21:52;;;;;;;8.88;3.35;;;;;;;18.57;71.54;100192.44;4975766;28;20050;-78
2022/10/24 12:24:28;;;;;;;10.80;3.38;;;;;;;18.53;72.06;100192.06;4974790;28;20053;-78
2022/10/24 12:27:01;;;;;;;7.47;2.75;;;;;;;18.56;72.87;100199.56;4976793;28;20055;-79
2022/10/24 12:29:30;;;;;;;11.32;2.88;;;;;;;18.62;72.48;100195.28;4975287;28;20434;-79
2022/10/24 12:32:00;;;;;;;8.38;3.20;;;;;;;18.61;72.49;100182.25;4976193;28;20395;-79
2022/10/24 12:34:41;;;;;;;14.23;3.47;;;;;;;18.64;72.37;100184.44;4976066;28;20105;-79
2022/10/24 12:37:30;;;;;;;11.95;2.75;;;;;;;18.69;72.42;100190.72;4975696;28;20050;-78
2022/10/24 12:39:58;;;;;;;6.20;2.35;;;;;;;18.67;72.47;100195.44;4977160;28;20046;-78
2022/10/24 12:43:12;;;;;;;5.55;2.10;;;;;;;18.57;71.52;100198.53;4977749;28;20109;-79
2022/10/24 12:45:39;;;;;;;13.02;3.30;;;;;;;18.63;71.89;100183.63;4950283;28;20051;-79
2022/10/24 12:48:30;;;;;;;8.55;2.53;;;;;;;18.60;71.12;100194.69;4976841;28;20307;-79
2022/10/24 12:51:03;;;;;;;8.30;2.92;;;;;;;18.69;71.99;100203.16;4975859;28;20061;-78
2022/10/24 12:53:39;;;;;;;9.73;2.97;;;;;;;18.58;72.45;100194.84;4979161;28;20566;-79
2022/10/24 12:56:13;;;;;;;13.35;3.40;;;;;;;18.70;72.41;100207.44;4979882;28;20051;-79
2022/10/24 12:58:42;;;;;;;9.98;2.95;;;;;;;18.63;72.66;100193.44;4977129;28;20050;-78
2022/10/24 13:01:12;;;;;;;12.07;3.53;;;;;;;18.66;72.21;100193.00;4976824;28;20540;-78
2022/10/24 13:04:08;;;;;;;12.30;3.67;;;;;;;18.64;72.01;100187.91;4976333;28;20082;-78
2022/10/24 13:06:43;;;;;;;9.27;2.42;;;;;;;18.59;72.36;100179.78;4967674;28;20153;-78
2022/10/24 13:09:23;;;;;;;15.85;4.00;;;;;;;18.56;71.85;100191.63;4977805;28;20130;-78
2022/10/24 13:12:05;;;;;;;12.30;3.30;;;;;;;18.57;72.38;100182.63;4963541;28;20130;-78
2022/10/24 13:14:59;;;;;;;7.88;2.92;;;;;;;18.66;72.39;100179.75;4977273;28;20046;-78
2022/10/24 13:17:37;;;;;;;8.95;3.00;;;;;;;18.74;71.98;100168.84;4977994;28;20055;-78
2022/10/24 13:20:16;;;;;;;15.20;3.92;;;;;;;18.72;72.57;100173.56;4977816;28;20126;-79
2022/10/24 13:22:45;;;;;;;11.05;3.10;;;;;;;18.81;72.19;100169.59;4978342;28;20105;-79
2022/10/24 13:25:21;;;;;;;13.60;2.97;;;;;;;18.67;71.42;100171.56;4977747;28;20046;-78
2022/10/24 13:28:22;;;;;;;12.85;3.28;;;;;;;18.69;72.42;100168.69;4978620;28;20043;-79
2022/10/24 13:31:30;;;;;;;11.32;3.00;;;;;;;18.66;72.23;100155.88;4979222;28;20065;-78
2022/10/24 13:34:15;;;;;;;7.25;3.80;;;;;;;18.84;71.93;100163.84;4976537;28;20062;-78
2022/10/24 13:36:43;;;;;;;9.68;2.75;;;;;;;18.77;72.43;100161.28;4977609;28;20047;-79
2022/10/24 13:39:15;;;;;;;11.05;3.80;;;;;;;18.50;72.94;100160.69;4977403;28;20430;-79
2022/10/24 13:41:48;;;;;;;13.38;3.05;;;;;;;18.34;73.29;100158.63;4977606;28;20046;-79
2022/10/24 13:44:24;;;;;;;10.70;2.97;;;;;;;18.38;72.69;100161.66;4981894;28;20188;-79
2022/10/24 13:46:55;;;;;;;7.32;3.05;;;;;;;18.35;72.92;100151.50;4977450;28;20090;-78
2022/10/24 13:49:31;;;;;;;10.15;3.10;;;;;;;18.40;73.35;100159.59;4978780;28;20082;-77
2022/10/24 13:52:07;;;;;;;10.27;2.60;;;;;;;18.39;73.69;100163.28;4965207;28;20061;-78
2022/10/24 13:54:36;;;;;;;8.93;3.15;;;;;;;18.45;72.86;100162.38;4969300;28;20078;-79
2022/10/24 13:57:03;;;;;;;7.20;3.03;;;;;;;18.42;72.13;100165.50;4964963;28;20115;-79
2022/10/24 13:59:32;;;;;;;13.50;3.13;;;;;;;18.51;72.61;100172.09;4979930;28;20112;-79
2022/10/24 14:02:06;;;;;;;16.60;3.05;;;;;;;18.49;72.71;100163.56;4978574;28;20075;-79
2022/10/24 14:04:35;;;;;;;11.52;3.25;;;;;;;18.55;72.92;100173.28;4979480;28;20043;-79
2022/10/24 14:07:04;;;;;;;8.32;2.70;;;;;;;18.55;73.29;100175.94;4977879;28;20054;-79
2022/10/24 14:09:39;;;;;;;9.63;2.50;;;;;;;18.55;72.95;100168.81;4975804;28;20078;-79
2022/10/24 14:12:06;;;;;;;8.15;2.40;;;;;;;18.49;73.12;100172.31;4965406;28;20462;-79
2022/10/24 14:14:38;;;;;;;11.75;3.53;;;;;;;18.39;73.52;100164.09;4979461;28;20047;-80
2022/10/24 14:17:07;;;;;;;7.93;2.72;;;;;;;18.30;72.81;100169.88;4977181;28;20528;-79
2022/10/24 14:19:39;;;;;;;13.10;2.85;;;;;;;18.15;73.29;100164.91;4973080;28;20109;-79
2022/10/24 14:22:18;;;;;;;7.55;2.60;;;;;;;18.19;73.09;100166.91;4967346;28;20103;-78
2022/10/24 14:24:47;;;;;;;7.10;2.80;;;;;;;18.17;73.43;100171.59;4969533;28;20047;-81
2022/10/24 14:27:14;;;;;;;13.27;2.92;;;;;;;18.19;73.90;100176.69;4976462;28;20043;-79
2022/10/24 14:29:51;;;;;;;10.18;2.95;;;;;;;18.15;74.16;100171.00;4977323;28;20050;-78
2022/10/24 14:32:18;;;;;;;7.85;2.67;;;;;;;18.20;74.04;100187.06;4975817;28;20490;-78
2022/10/24 14:34:47;;;;;;;12.50;3.65;;;;;;;18.22;73.43;100174.41;4975617;28;20047;-79
2022/10/24 14:37:19;;;;;;;12.18;2.80;;;;;;;18.34;72.46;100173.72;4984942;28;20081;-80
2022/10/24 14:39:46;;;;;;;9.40;3.10;;;;;;;18.33;72.54;100180.03;4977625;28;20424;-78
2022/10/24 14:42:15;;;;;;;8.95;2.40;;;;;;;18.35;72.31;100184.09;4975613;28;20717;-78